Terminal Aerodrome Forecast
Issued by NWS Austin/San Antonio, TX

Home | Current Version | Previous Version | Text Only | Print | Product List | Glossary On
Versions: 1 2 3 4 5 6 7 8 9 10 11 12 13 14 15 16 17 18 19 20 21 22 23 24 25
213
FTUS44 KEWX 300904 AAA
TAFAUS
TAF AMD
KAUS 300904Z 3009/0112 21004KT 6SM BR VCTS BKN015CB
      TEMPO 3009/3011 VRB20G30KT 1SM +TSRA BKN007CB
     FM301100 18004KT 5SM BR BKN010
     FM301400 33004KT P6SM BKN020
     FM301700 02005KT P6SM BKN250=

USA.gov is the U.S. government's official web portal to all federal, state and local government web resources and services.